sensor_id;sensor_type;location;lat;lon;timestamp;pressure;altitude;pressure_sealevel;temperature;humidity
9229;BME280;4649;42.644;23.284;2023-04-07T00:04:15;92741.53;;;3.62;47.54
9229;BME280;4649;42.644;23.284;2023-04-07T00:13:16;92596.16;;;2.71;46.70
9229;BME280;4649;42.644;23.284;2023-04-07T00:15:56;92746.78;;;3.79;46.66
9229;BME280;4649;42.644;23.284;2023-04-07T00:21:32;92520.78;;;2.03;47.45
9229;BME280;4649;42.644;23.284;2023-04-07T00:31:38;92528.16;;;2.17;45.96
9229;BME280;4649;42.644;23.284;2023-04-07T00:34:22;92648.81;;;3.12;46.72
9229;BME280;4649;42.644;23.284;2023-04-07T00:37:23;92537.88;;;2.29;47.64
9229;BME280;4649;42.644;23.284;2023-04-07T00:40:14;92727.97;;;3.65;46.11
9229;BME280;4649;42.644;23.284;2023-04-07T00:43:19;92696.91;;;3.12;46.53
9229;BME280;4649;42.644;23.284;2023-04-07T00:46:29;92557.50;;;2.26;47.29
9229;BME280;4649;42.644;23.284;2023-04-07T00:52:59;92738.91;;;3.53;48.42
9229;BME280;4649;42.644;23.284;2023-04-07T00:55:34;92570.53;;;2.65;46.14
9229;BME280;4649;42.644;23.284;2023-04-07T00:58:49;92516.88;;;2.22;46.51
9229;BME280;4649;42.644;23.284;2023-04-07T01:01:44;92546.44;;;2.41;47.17
9229;BME280;4649;42.644;23.284;2023-04-07T01:04:43;92523.06;;;2.28;47.21
9229;BME280;4649;42.644;23.284;2023-04-07T01:07:31;92528.09;;;2.35;46.79
9229;BME280;4649;42.644;23.284;2023-04-07T01:10:32;92561.19;;;2.60;46.44
9229;BME280;4649;42.644;23.284;2023-04-07T01:16:04;92565.03;;;2.59;47.81
9229;BME280;4649;42.644;23.284;2023-04-07T01:21:55;92573.31;;;2.70;47.50
9229;BME280;4649;42.644;23.284;2023-04-07T01:24:53;92628.31;;;3.09;46.77
9229;BME280;4649;42.644;23.284;2023-04-07T01:27:35;92722.81;;;3.62;47.86
9229;BME280;4649;42.644;23.284;2023-04-07T01:30:20;92713.00;;;3.59;47.92
9229;BME280;4649;42.644;23.284;2023-04-07T01:33:11;92636.06;;;3.07;47.69
9229;BME280;4649;42.644;23.284;2023-04-07T01:36:08;92710.44;;;3.64;47.17
9229;BME280;4649;42.644;23.284;2023-04-07T01:38:48;92539.59;;;2.40;47.99
9229;BME280;4649;42.644;23.284;2023-04-07T01:41:36;92718.63;;;3.61;47.69
9229;BME280;4649;42.644;23.284;2023-04-07T01:44:15;92711.50;;;3.58;46.80
9229;BME280;4649;42.644;23.284;2023-04-07T01:46:51;92589.13;;;2.83;46.91
9229;BME280;4649;42.644;23.284;2023-04-07T01:49:29;92608.72;;;3.12;46.37
9229;BME280;4649;42.644;23.284;2023-04-07T01:52:08;92581.38;;;3.08;45.49
9229;BME280;4649;42.644;23.284;2023-04-07T01:54:53;92491.47;;;2.58;45.71
9229;BME280;4649;42.644;23.284;2023-04-07T01:57:25;92545.00;;;2.87;45.05
9229;BME280;4649;42.644;23.284;2023-04-07T02:00:06;92696.34;;;4.01;44.82
9229;BME280;4649;42.644;23.284;2023-04-07T02:02:53;92612.78;;;3.45;45.02
9229;BME280;4649;42.644;23.284;2023-04-07T02:05:40;92577.59;;;3.23;44.90
9229;BME280;4649;42.644;23.284;2023-04-07T02:10:46;92505.19;;;2.66;45.27
9229;BME280;4649;42.644;23.284;2023-04-07T02:13:35;92691.63;;;3.96;44.94
9229;BME280;4649;42.644;23.284;2023-04-07T02:16:13;92565.63;;;3.10;45.62
9229;BME280;4649;42.644;23.284;2023-04-07T02:18:52;92702.97;;;3.91;44.98
9229;BME280;4649;42.644;23.284;2023-04-07T02:21:44;92525.00;;;2.83;44.92
9229;BME280;4649;42.644;23.284;2023-04-07T02:26:59;92606.41;;;3.43;44.65
9229;BME280;4649;42.644;23.284;2023-04-07T02:29:26;92615.09;;;3.52;45.26
9229;BME280;4649;42.644;23.284;2023-04-07T02:31:55;92467.50;;;2.40;44.55
9229;BME280;4649;42.644;23.284;2023-04-07T02:34:50;92704.91;;;3.91;45.84
9229;BME280;4649;42.644;23.284;2023-04-07T02:37:17;92695.84;;;3.88;44.71
9229;BME280;4649;42.644;23.284;2023-04-07T02:39:45;92503.50;;;2.54;45.24
9229;BME280;4649;42.644;23.284;2023-04-07T02:42:26;92495.28;;;2.66;44.98
9229;BME280;4649;42.644;23.284;2023-04-07T02:44:59;92525.44;;;2.81;45.46
9229;BME280;4649;42.644;23.284;2023-04-07T02:47:26;92574.63;;;3.21;44.81
9229;BME280;4649;42.644;23.284;2023-04-07T02:50:09;92512.88;;;2.96;44.77
9229;BME280;4649;42.644;23.284;2023-04-07T02:52:36;92692.88;;;4.24;45.04
9229;BME280;4649;42.644;23.284;2023-04-07T02:55:06;92589.19;;;3.44;45.20
9229;BME280;4649;42.644;23.284;2023-04-07T02:57:37;92567.47;;;3.27;46.52
9229;BME280;4649;42.644;23.284;2023-04-07T03:00:07;92702.38;;;4.25;45.88
9229;BME280;4649;42.644;23.284;2023-04-07T03:02:35;92537.03;;;3.25;45.09
9229;BME280;4649;42.644;23.284;2023-04-07T03:05:04;92647.41;;;4.01;45.55
9229;BME280;4649;42.644;23.284;2023-04-07T03:07:36;92632.66;;;4.05;45.38
9229;BME280;4649;42.644;23.284;2023-04-07T03:10:05;92615.19;;;3.95;44.38
9229;BME280;4649;42.644;23.284;2023-04-07T03:13:01;92526.25;;;3.34;44.75
9229;BME280;4649;42.644;23.284;2023-04-07T03:15:46;92543.72;;;3.44;44.43
9229;BME280;4649;42.644;23.284;2023-04-07T03:18:17;92628.28;;;3.93;44.96
9229;BME280;4649;42.644;23.284;2023-04-07T03:20:47;92601.16;;;3.86;44.47
9229;BME280;4649;42.644;23.284;2023-04-07T03:23:18;92522.81;;;3.19;44.81
9229;BME280;4649;42.644;23.284;2023-04-07T03:25:46;92701.22;;;4.55;44.63
9229;BME280;4649;42.644;23.284;2023-04-07T03:28:16;92561.69;;;3.58;44.80
9229;BME280;4649;42.644;23.284;2023-04-07T03:30:44;92554.97;;;3.48;44.89
9229;BME280;4649;42.644;23.284;2023-04-07T03:33:13;92519.59;;;3.29;45.28
9229;BME280;4649;42.644;23.284;2023-04-07T03:35:44;92570.88;;;3.80;44.36
9229;BME280;4649;42.644;23.284;2023-04-07T03:38:21;92701.59;;;4.62;44.91
9229;BME280;4649;42.644;23.284;2023-04-07T03:41:03;92644.81;;;3.92;45.71
9229;BME280;4649;42.644;23.284;2023-04-07T03:43:31;92496.50;;;3.03;45.27
9229;BME280;4649;42.644;23.284;2023-04-07T03:46:03;92494.50;;;3.12;45.07
9229;BME280;4649;42.644;23.284;2023-04-07T03:48:31;92511.75;;;3.26;45.69
9229;BME280;4649;42.644;23.284;2023-04-07T03:51:04;92619.19;;;4.00;45.93
9229;BME280;4649;42.644;23.284;2023-04-07T03:53:36;92573.06;;;3.29;46.33
9229;BME280;4649;42.644;23.284;2023-04-07T03:56:07;92709.28;;;4.17;47.33
9229;BME280;4649;42.644;23.284;2023-04-07T03:58:37;92566.75;;;3.18;46.77
9229;BME280;4649;42.644;23.284;2023-04-07T04:01:07;92692.31;;;4.20;46.46
9229;BME280;4649;42.644;23.284;2023-04-07T04:03:41;92582.56;;;3.30;46.76
9229;BME280;4649;42.644;23.284;2023-04-07T04:06:37;92706.13;;;4.04;46.48
9229;BME280;4649;42.644;23.284;2023-04-07T04:09:33;92611.69;;;3.05;46.96
9229;BME280;4649;42.644;23.284;2023-04-07T04:12:15;92649.84;;;3.38;46.86
9229;BME280;4649;42.644;23.284;2023-04-07T04:14:44;92571.44;;;2.85;47.41
9229;BME280;4649;42.644;23.284;2023-04-07T04:17:12;92681.94;;;3.75;47.67
9229;BME280;4649;42.644;23.284;2023-04-07T04:19:39;92612.50;;;3.20;46.93
9229;BME280;4649;42.644;23.284;2023-04-07T04:22:10;92501.69;;;2.60;46.72
9229;BME280;4649;42.644;23.284;2023-04-07T04:24:46;92714.63;;;4.03;47.08
9229;BME280;4649;42.644;23.284;2023-04-07T04:27:19;92723.31;;;3.74;47.01
9229;BME280;4649;42.644;23.284;2023-04-07T04:29:52;92715.31;;;3.89;46.86
9229;BME280;4649;42.644;23.284;2023-04-07T04:32:20;92540.13;;;2.62;47.05
9229;BME280;4649;42.644;23.284;2023-04-07T04:34:52;92588.94;;;2.86;47.19
9229;BME280;4649;42.644;23.284;2023-04-07T04:37:28;92722.56;;;3.74;47.64
9229;BME280;4649;42.644;23.284;2023-04-07T04:40:03;92646.13;;;3.12;48.15
9229;BME280;4649;42.644;23.284;2023-04-07T04:42:37;92627.22;;;3.15;49.29
9229;BME280;4649;42.644;23.284;2023-04-07T04:45:06;92732.19;;;3.80;48.11
9229;BME280;4649;42.644;23.284;2023-04-07T04:47:47;92565.88;;;2.74;47.32
9229;BME280;4649;42.644;23.284;2023-04-07T04:50:20;92595.41;;;3.03;47.55
9229;BME280;4649;42.644;23.284;2023-04-07T04:53:07;92534.47;;;2.60;46.83
9229;BME280;4649;42.644;23.284;2023-04-07T04:56:08;92622.97;;;3.32;47.37
9229;BME280;4649;42.644;23.284;2023-04-07T04:59:07;92745.81;;;4.29;46.12
9229;BME280;4649;42.644;23.284;2023-04-07T05:08:21;92737.47;;;5.91;41.84
9229;BME280;4649;42.644;23.284;2023-04-07T05:19:53;92738.78;;;9.65;34.22
9229;BME280;4649;42.644;23.284;2023-04-07T05:25:32;92703.09;;;10.72;33.04
9229;BME280;4649;42.644;23.284;2023-04-07T05:33:49;92750.03;;;12.18;29.03
9229;BME280;4649;42.644;23.284;2023-04-07T05:37:11;92550.44;;;9.54;30.65
9229;BME280;4649;42.644;23.284;2023-04-07T05:43:52;92750.28;;;10.82;31.74
9229;BME280;4649;42.644;23.284;2023-04-07T05:46:53;92754.25;;;9.80;32.74
9229;BME280;4649;42.644;23.284;2023-04-07T05:49:49;92669.06;;;9.25;33.87
9229;BME280;4649;42.644;23.284;2023-04-07T05:55:33;92605.09;;;7.86;33.93
9229;BME280;4649;42.644;23.284;2023-04-07T06:01:24;92773.59;;;8.97;35.52
9229;BME280;4649;42.644;23.284;2023-04-07T06:04:38;92771.19;;;9.43;35.14
9229;BME280;4649;42.644;23.284;2023-04-07T06:07:35;92582.44;;;8.41;33.70
9229;BME280;4649;42.644;23.284;2023-04-07T06:23:46;92751.69;;;10.37;31.83
9229;BME280;4649;42.644;23.284;2023-04-07T06:29:20;92608.41;;;10.26;30.95
9229;BME280;4649;42.644;23.284;2023-04-07T06:48:08;92622.69;;;14.85;24.31
9229;BME280;4649;42.644;23.284;2023-04-07T06:51:07;92698.41;;;16.27;24.01
9229;BME280;4649;42.644;23.284;2023-04-07T06:57:09;92635.41;;;16.96;23.40
9229;BME280;4649;42.644;23.284;2023-04-07T06:59:36;92764.81;;;19.02;22.14
9229;BME280;4649;42.644;23.284;2023-04-07T07:02:03;92746.75;;;20.73;19.89
9229;BME280;4649;42.644;23.284;2023-04-07T07:04:33;92763.44;;;21.93;19.41
9229;BME280;4649;42.644;23.284;2023-04-07T07:07:00;92760.88;;;20.70;19.71
9229;BME280;4649;42.644;23.284;2023-04-07T07:09:27;92763.22;;;18.85;20.18
9229;BME280;4649;42.644;23.284;2023-04-07T07:11:54;92685.75;;;17.72;21.45
9229;BME280;4649;42.644;23.284;2023-04-07T07:14:22;92735.66;;;19.37;20.88
9229;BME280;4649;42.644;23.284;2023-04-07T07:16:48;92773.66;;;18.41;20.70
9229;BME280;4649;42.644;23.284;2023-04-07T07:19:15;92782.63;;;17.62;22.04
9229;BME280;4649;42.644;23.284;2023-04-07T07:21:43;92777.53;;;17.66;22.45
9229;BME280;4649;42.644;23.284;2023-04-07T07:24:10;92787.13;;;16.82;22.88
9229;BME280;4649;42.644;23.284;2023-04-07T07:26:37;92738.75;;;18.64;20.81
9229;BME280;4649;42.644;23.284;2023-04-07T07:29:03;92757.97;;;18.34;21.14
9229;BME280;4649;42.644;23.284;2023-04-07T07:31:30;92792.09;;;18.33;21.09
9229;BME280;4649;42.644;23.284;2023-04-07T07:33:57;92765.00;;;17.35;22.46
9229;BME280;4649;42.644;23.284;2023-04-07T07:36:25;92678.78;;;15.88;22.97
9229;BME280;4649;42.644;23.284;2023-04-07T07:39:18;92637.25;;;13.46;24.54
9229;BME280;4649;42.644;23.284;2023-04-07T07:42:05;92621.88;;;11.65;27.53
9229;BME280;4649;42.644;23.284;2023-04-07T07:45:00;92686.78;;;12.47;26.90
9229;BME280;4649;42.644;23.284;2023-04-07T07:51:04;92680.28;;;13.11;25.36
9229;BME280;4649;42.644;23.284;2023-04-07T08:03:28;92731.59;;;17.29;22.59
9229;BME280;4649;42.644;23.284;2023-04-07T08:06:00;92804.78;;;17.36;22.64
9229;BME280;4649;42.644;23.284;2023-04-07T08:08:33;92771.34;;;17.73;22.58
9229;BME280;4649;42.644;23.284;2023-04-07T08:11:00;92749.91;;;17.42;22.55
9229;BME280;4649;42.644;23.284;2023-04-07T08:13:28;92697.16;;;16.08;23.53
9229;BME280;4649;42.644;23.284;2023-04-07T08:20:15;92648.31;;;14.05;25.53
9229;BME280;4649;42.644;23.284;2023-04-07T08:37:07;92774.28;;;13.56;26.59
9229;BME280;4649;42.644;23.284;2023-04-07T08:45:18;92812.97;;;12.88;28.71
9229;BME280;4649;42.644;23.284;2023-04-07T08:48:14;92696.84;;;12.10;28.59
9229;BME280;4649;42.644;23.284;2023-04-07T08:51:06;92628.97;;;12.52;28.29
9229;BME280;4649;42.644;23.284;2023-04-07T08:53:53;92818.09;;;14.33;27.83
9229;BME280;4649;42.644;23.284;2023-04-07T08:56:49;92645.69;;;13.42;26.11
9229;BME280;4649;42.644;23.284;2023-04-07T08:59:39;92786.88;;;14.03;26.69
9229;BME280;4649;42.644;23.284;2023-04-07T09:23:15;92823.66;;;15.57;26.14
9229;BME280;4649;42.644;23.284;2023-04-07T09:37:25;92711.63;;;12.75;27.44
9229;BME280;4649;42.644;23.284;2023-04-07T10:03:01;92658.94;;;12.05;28.57
9229;BME280;4649;42.644;23.284;2023-04-07T10:06:19;92829.81;;;13.60;29.38
9229;BME280;4649;42.644;23.284;2023-04-07T10:09:22;92827.75;;;13.30;29.04
9229;BME280;4649;42.644;23.284;2023-04-07T10:12:08;92654.19;;;12.29;28.83
9229;BME280;4649;42.644;23.284;2023-04-07T10:21:54;92635.78;;;10.52;31.37
9229;BME280;4649;42.644;23.284;2023-04-07T10:31:40;92833.47;;;12.36;30.33
9229;BME280;4649;42.644;23.284;2023-04-07T11:25:54;92849.16;;;10.99;34.61
9229;BME280;4649;42.644;23.284;2023-04-07T11:31:39;92668.22;;;9.95;33.49
9229;BME280;4649;42.644;23.284;2023-04-07T11:38:26;92839.59;;;11.38;33.38
9229;BME280;4649;42.644;23.284;2023-04-07T11:49:22;92856.78;;;11.57;34.13
9229;BME280;4649;42.644;23.284;2023-04-07T11:55:50;92856.50;;;11.60;36.26
9229;BME280;4649;42.644;23.284;2023-04-07T12:07:35;92665.09;;;9.75;37.82
9229;BME280;4649;42.644;23.284;2023-04-07T12:12:53;92729.91;;;10.13;37.93
9229;BME280;4649;42.644;23.284;2023-04-07T13:28:55;92680.09;;;8.78;40.88
9229;BME280;4649;42.644;23.284;2023-04-07T13:32:15;92716.44;;;9.04;40.89
9229;BME280;4649;42.644;23.284;2023-04-07T13:35:24;92837.56;;;10.04;40.59
9229;BME280;4649;42.644;23.284;2023-04-07T14:18:32;92834.69;;;8.37;46.77
9229;BME280;4649;42.644;23.284;2023-04-07T14:57:10;92881.50;;;7.78;52.09
9229;BME280;4649;42.644;23.284;2023-04-07T15:16:23;92953.69;;;7.99;54.13
9229;BME280;4649;42.644;23.284;2023-04-07T15:25:19;92766.06;;;6.53;54.17
9229;BME280;4649;42.644;23.284;2023-04-07T15:28:49;92756.19;;;6.05;56.17
9229;BME280;4649;42.644;23.284;2023-04-07T15:54:07;92777.00;;;6.30;56.60
9229;BME280;4649;42.644;23.284;2023-04-07T15:57:01;92795.34;;;6.51;57.51
9229;BME280;4649;42.644;23.284;2023-04-07T16:00:22;92898.25;;;7.36;56.55
9229;BME280;4649;42.644;23.284;2023-04-07T16:03:29;92871.91;;;6.95;58.43
9229;BME280;4649;42.644;23.284;2023-04-07T16:06:18;92772.50;;;6.41;56.28
9229;BME280;4649;42.644;23.284;2023-04-07T16:09:25;92823.91;;;6.49;56.93
9229;BME280;4649;42.644;23.284;2023-04-07T16:14:56;92782.44;;;5.96;58.70
9229;BME280;4649;42.644;23.284;2023-04-07T16:18:26;92944.19;;;7.08;57.40
9229;BME280;4649;42.644;23.284;2023-04-07T16:23:49;92786.63;;;6.16;55.96
9229;BME280;4649;42.644;23.284;2023-04-07T16:26:53;92804.75;;;6.21;55.70
9229;BME280;4649;42.644;23.284;2023-04-07T16:32:10;93021.41;;;7.41;58.56
9229;BME280;4649;42.644;23.284;2023-04-07T16:34:58;92934.50;;;6.96;56.71
9229;BME280;4649;42.644;23.284;2023-04-07T16:37:38;92911.31;;;6.78;56.77
9229;BME280;4649;42.644;23.284;2023-04-07T16:40:31;93024.59;;;7.40;58.38
9229;BME280;4649;42.644;23.284;2023-04-07T16:43:26;92814.06;;;5.72;59.12
9229;BME280;4649;42.644;23.284;2023-04-07T16:53:50;93021.53;;;7.13;58.57
9229;BME280;4649;42.644;23.284;2023-04-07T16:56:28;92900.94;;;6.17;59.49
9229;BME280;4649;42.644;23.284;2023-04-07T16:59:19;92891.41;;;6.16;60.04
9229;BME280;4649;42.644;23.284;2023-04-07T17:02:13;92956.28;;;6.58;59.98
9229;BME280;4649;42.644;23.284;2023-04-07T17:04:55;92972.22;;;6.47;60.09
9229;BME280;4649;42.644;23.284;2023-04-07T17:07:36;92950.72;;;6.47;60.87
9229;BME280;4649;42.644;23.284;2023-04-07T17:10:25;93049.63;;;6.92;60.31
9229;BME280;4649;42.644;23.284;2023-04-07T17:13:09;93060.94;;;6.96;60.88
9229;BME280;4649;42.644;23.284;2023-04-07T17:22:02;93047.38;;;7.05;61.86
9229;BME280;4649;42.644;23.284;2023-04-07T17:27:55;93049.94;;;7.14;60.02
9229;BME280;4649;42.644;23.284;2023-04-07T17:30:42;92906.19;;;5.78;61.13
9229;BME280;4649;42.644;23.284;2023-04-07T17:35:55;92852.47;;;5.20;62.12
9229;BME280;4649;42.644;23.284;2023-04-07T17:38:43;92966.16;;;5.60;63.09
9229;BME280;4649;42.644;23.284;2023-04-07T17:41:26;92865.00;;;4.48;65.07
9229;BME280;4649;42.644;23.284;2023-04-07T17:47:00;93028.69;;;5.14;67.51
9229;BME280;4649;42.644;23.284;2023-04-07T17:49:37;92894.25;;;4.37;68.30
9229;BME280;4649;42.644;23.284;2023-04-07T17:52:16;92888.66;;;4.26;68.68
9229;BME280;4649;42.644;23.284;2023-04-07T17:54:49;92909.25;;;4.43;67.36
9229;BME280;4649;42.644;23.284;2023-04-07T18:00:13;92982.88;;;5.03;68.30
9229;BME280;4649;42.644;23.284;2023-04-07T18:02:55;92944.19;;;4.95;68.11
9229;BME280;4649;42.644;23.284;2023-04-07T18:05:54;92902.97;;;4.70;68.59
9229;BME280;4649;42.644;23.284;2023-04-07T18:11:55;92907.69;;;4.75;67.63
9229;BME280;4649;42.644;23.284;2023-04-07T18:14:52;93112.75;;;6.19;67.55
9229;BME280;4649;42.644;23.284;2023-04-07T18:18:21;93111.06;;;6.21;67.43
9229;BME280;4649;42.644;23.284;2023-04-07T18:21:05;93114.50;;;6.36;66.86
9229;BME280;4649;42.644;23.284;2023-04-07T18:23:51;92996.50;;;5.52;67.43
9229;BME280;4649;42.644;23.284;2023-04-07T18:26:34;93043.13;;;5.78;67.08
9229;BME280;4649;42.644;23.284;2023-04-07T18:32:23;93046.66;;;5.46;68.26
9229;BME280;4649;42.644;23.284;2023-04-07T18:34:52;93010.69;;;5.29;68.44
9229;BME280;4649;42.644;23.284;2023-04-07T18:37:20;92963.53;;;4.99;68.23
9229;BME280;4649;42.644;23.284;2023-04-07T18:39:50;92968.97;;;4.90;68.33
9229;BME280;4649;42.644;23.284;2023-04-07T18:42:21;93120.50;;;6.03;69.51
9229;BME280;4649;42.644;23.284;2023-04-07T18:44:48;93120.97;;;6.15;68.89
9229;BME280;4649;42.644;23.284;2023-04-07T18:47:41;93130.38;;;6.34;68.66
9229;BME280;4649;42.644;23.284;2023-04-07T18:50:09;93139.34;;;6.46;68.26
9229;BME280;4649;42.644;23.284;2023-04-07T18:52:40;93135.81;;;6.54;68.66
9229;BME280;4649;42.644;23.284;2023-04-07T18:55:41;93032.56;;;5.51;67.70
9229;BME280;4649;42.644;23.284;2023-04-07T18:58:44;93026.56;;;5.56;70.39
9229;BME280;4649;42.644;23.284;2023-04-07T19:01:14;92963.53;;;4.99;70.68
9229;BME280;4649;42.644;23.284;2023-04-07T19:03:46;93119.78;;;6.16;68.41
9229;BME280;4649;42.644;23.284;2023-04-07T19:06:31;92908.78;;;4.22;71.08
9229;BME280;4649;42.644;23.284;2023-04-07T19:09:02;93006.75;;;4.92;70.13
9229;BME280;4649;42.644;23.284;2023-04-07T19:11:30;93126.25;;;5.49;70.44
9229;BME280;4649;42.644;23.284;2023-04-07T19:14:10;93080.38;;;4.91;71.44
9229;BME280;4649;42.644;23.284;2023-04-07T19:19:44;93133.63;;;5.07;72.65
9229;BME280;4649;42.644;23.284;2023-04-07T19:22:36;92918.03;;;3.88;72.60
9229;BME280;4649;42.644;23.284;2023-04-07T19:25:35;93098.13;;;4.89;74.31
9229;BME280;4649;42.644;23.284;2023-04-07T19:28:32;93116.28;;;5.41;76.76
9229;BME280;4649;42.644;23.284;2023-04-07T19:31:14;93033.81;;;5.03;73.49
9229;BME280;4649;42.644;23.284;2023-04-07T19:33:46;92933.88;;;4.33;73.78
9229;BME280;4649;42.644;23.284;2023-04-07T19:36:34;92945.44;;;4.07;73.03
9229;BME280;4649;42.644;23.284;2023-04-07T19:42:27;93069.53;;;4.54;73.66
9229;BME280;4649;42.644;23.284;2023-04-07T19:45:06;93035.91;;;4.44;74.37
9229;BME280;4649;42.644;23.284;2023-04-07T19:47:54;92932.59;;;3.87;72.53
9229;BME280;4649;42.644;23.284;2023-04-07T19:50:24;93112.88;;;5.40;72.40
9229;BME280;4649;42.644;23.284;2023-04-07T19:53:10;93083.53;;;5.13;73.19
9229;BME280;4649;42.644;23.284;2023-04-07T19:55:41;93115.72;;;5.60;70.83
9229;BME280;4649;42.644;23.284;2023-04-07T19:58:14;93120.81;;;5.58;72.99
9229;BME280;4649;42.644;23.284;2023-04-07T20:00:51;92865.72;;;3.78;70.77
9229;BME280;4649;42.644;23.284;2023-04-07T20:03:21;92983.78;;;4.77;70.49
9229;BME280;4649;42.644;23.284;2023-04-07T20:05:51;92951.41;;;4.34;72.70
9229;BME280;4649;42.644;23.284;2023-04-07T20:08:23;92921.72;;;4.46;70.32
9229;BME280;4649;42.644;23.284;2023-04-07T20:11:07;92980.28;;;5.09;70.32
9229;BME280;4649;42.644;23.284;2023-04-07T20:13:40;93035.66;;;5.58;70.08
9229;BME280;4649;42.644;23.284;2023-04-07T20:16:09;93103.84;;;6.27;68.38
9229;BME280;4649;42.644;23.284;2023-04-07T20:18:39;92947.72;;;5.01;68.69
9229;BME280;4649;42.644;23.284;2023-04-07T20:21:10;93008.72;;;5.67;68.65
9229;BME280;4649;42.644;23.284;2023-04-07T20:23:45;93122.50;;;6.60;69.57
9229;BME280;4649;42.644;23.284;2023-04-07T20:26:19;93009.72;;;6.07;68.42
9229;BME280;4649;42.644;23.284;2023-04-07T20:28:48;92889.69;;;5.42;67.35
9229;BME280;4649;42.644;23.284;2023-04-07T20:31:23;93076.75;;;6.74;67.66
9229;BME280;4649;42.644;23.284;2023-04-07T20:33:54;93058.44;;;6.58;67.53
9229;BME280;4649;42.644;23.284;2023-04-07T20:36:25;92959.69;;;5.81;67.78
9229;BME280;4649;42.644;23.284;2023-04-07T20:39:01;93053.53;;;6.42;67.11
9229;BME280;4649;42.644;23.284;2023-04-07T20:41:36;93147.22;;;7.07;67.58
9229;BME280;4649;42.644;23.284;2023-04-07T20:44:14;92938.97;;;5.82;67.84
9229;BME280;4649;42.644;23.284;2023-04-07T20:46:48;93039.88;;;6.60;67.19
9229;BME280;4649;42.644;23.284;2023-04-07T20:49:22;93085.06;;;6.90;66.76
9229;BME280;4649;42.644;23.284;2023-04-07T20:51:54;92996.91;;;6.17;65.56
9229;BME280;4649;42.644;23.284;2023-04-07T20:54:28;93048.03;;;6.51;66.97
9229;BME280;4649;42.644;23.284;2023-04-07T20:57:00;93063.06;;;6.58;66.36
9229;BME280;4649;42.644;23.284;2023-04-07T20:59:42;92986.84;;;5.98;67.33
9229;BME280;4649;42.644;23.284;2023-04-07T21:02:12;93080.28;;;6.80;65.65
9229;BME280;4649;42.644;23.284;2023-04-07T21:04:51;92971.56;;;6.04;65.49
9229;BME280;4649;42.644;23.284;2023-04-07T21:07:28;92964.06;;;5.93;65.42
9229;BME280;4649;42.644;23.284;2023-04-07T21:10:12;93146.53;;;7.26;65.74
9229;BME280;4649;42.644;23.284;2023-04-07T21:12:54;92965.25;;;6.06;66.03
9229;BME280;4649;42.644;23.284;2023-04-07T21:15:25;92976.91;;;6.18;65.20
9229;BME280;4649;42.644;23.284;2023-04-07T21:17:53;93009.88;;;6.33;65.55
9229;BME280;4649;42.644;23.284;2023-04-07T21:20:21;93141.13;;;7.26;64.94
9229;BME280;4649;42.644;23.284;2023-04-07T21:23:01;93135.53;;;6.95;65.53
9229;BME280;4649;42.644;23.284;2023-04-07T21:25:38;92975.78;;;5.96;66.18
9229;BME280;4649;42.644;23.284;2023-04-07T21:28:28;92956.91;;;5.90;64.40
9229;BME280;4649;42.644;23.284;2023-04-07T21:31:05;92944.13;;;5.71;64.36
9229;BME280;4649;42.644;23.284;2023-04-07T21:33:38;92981.94;;;5.96;65.03
9229;BME280;4649;42.644;23.284;2023-04-07T21:36:06;93023.13;;;6.36;65.56
9229;BME280;4649;42.644;23.284;2023-04-07T21:38:51;93084.81;;;6.74;65.82
9229;BME280;4649;42.644;23.284;2023-04-07T21:41:49;93144.06;;;7.08;65.63
9229;BME280;4649;42.644;23.284;2023-04-07T21:44:22;93062.53;;;6.39;65.69
9229;BME280;4649;42.644;23.284;2023-04-07T21:47:02;92941.91;;;5.84;65.16
9229;BME280;4649;42.644;23.284;2023-04-07T21:49:43;93033.06;;;6.30;65.17
9229;BME280;4649;42.644;23.284;2023-04-07T21:52:19;92962.69;;;5.83;64.41
9229;BME280;4649;42.644;23.284;2023-04-07T21:55:00;93013.41;;;6.24;64.78
9229;BME280;4649;42.644;23.284;2023-04-07T21:57:32;93149.72;;;6.96;65.16
9229;BME280;4649;42.644;23.284;2023-04-07T22:00:06;92979.25;;;5.82;65.56
9229;BME280;4649;42.644;23.284;2023-04-07T22:02:53;92935.78;;;5.54;65.42
9229;BME280;4649;42.644;23.284;2023-04-07T22:05:41;92935.44;;;5.76;64.71
9229;BME280;4649;42.644;23.284;2023-04-07T22:08:20;93147.91;;;7.22;64.26
9229;BME280;4649;42.644;23.284;2023-04-07T22:10:55;93025.69;;;6.45;64.28
9229;BME280;4649;42.644;23.284;2023-04-07T22:13:37;93151.09;;;7.06;64.27
9229;BME280;4649;42.644;23.284;2023-04-07T22:16:06;93112.91;;;6.73;64.44
9229;BME280;4649;42.644;23.284;2023-04-07T22:18:34;93154.44;;;7.01;65.85
9229;BME280;4649;42.644;23.284;2023-04-07T22:21:04;92956.91;;;5.61;64.86
9229;BME280;4649;42.644;23.284;2023-04-07T22:26:43;93148.94;;;7.24;65.19
9229;BME280;4649;42.644;23.284;2023-04-07T22:29:27;92952.31;;;5.91;64.70
9229;BME280;4649;42.644;23.284;2023-04-07T22:32:11;92972.88;;;5.79;65.45
9229;BME280;4649;42.644;23.284;2023-04-07T22:35:02;93040.38;;;6.15;65.50
9229;BME280;4649;42.644;23.284;2023-04-07T22:37:35;93006.00;;;6.19;65.14
9229;BME280;4649;42.644;23.284;2023-04-07T22:40:23;93068.44;;;6.43;65.18
9229;BME280;4649;42.644;23.284;2023-04-07T22:43:19;93079.19;;;6.00;67.64
9229;BME280;4649;42.644;23.284;2023-04-07T22:46:08;92987.69;;;5.51;66.56
9229;BME280;4649;42.644;23.284;2023-04-07T22:48:51;92940.84;;;4.39;70.19
9229;BME280;4649;42.644;23.284;2023-04-07T22:51:24;92934.06;;;3.88;72.00
9229;BME280;4649;42.644;23.284;2023-04-07T22:53:54;93124.34;;;4.85;73.56
9229;BME280;4649;42.644;23.284;2023-04-07T22:56:22;93112.53;;;4.50;75.34
9229;BME280;4649;42.644;23.284;2023-04-07T22:58:52;93140.03;;;5.33;75.33
9229;BME280;4649;42.644;23.284;2023-04-07T23:01:23;92975.63;;;4.48;73.06
9229;BME280;4649;42.644;23.284;2023-04-07T23:04:00;92957.31;;;4.70;71.81
9229;BME280;4649;42.644;23.284;2023-04-07T23:06:30;93064.56;;;5.40;70.29
9229;BME280;4649;42.644;23.284;2023-04-07T23:09:00;93083.38;;;5.78;69.80
9229;BME280;4649;42.644;23.284;2023-04-07T23:11:32;92930.00;;;4.81;68.35
9229;BME280;4649;42.644;23.284;2023-04-07T23:14:05;92913.31;;;4.62;68.65
9229;BME280;4649;42.644;23.284;2023-04-07T23:16:41;93056.13;;;6.08;69.08
9229;BME280;4649;42.644;23.284;2023-04-07T23:19:39;92955.03;;;5.53;67.22
9229;BME280;4649;42.644;23.284;2023-04-07T23:22:36;92938.84;;;5.47;66.67
9229;BME280;4649;42.644;23.284;2023-04-07T23:25:16;92948.66;;;5.65;66.78
9229;BME280;4649;42.644;23.284;2023-04-07T23:27:52;93076.22;;;6.70;66.96
9229;BME280;4649;42.644;23.284;2023-04-07T23:30:53;93049.41;;;6.75;65.78